Time;durP1;ratioP1;P1;durP2;ratioP2;P2;SDS_P1;SDS_P2;PMS_P1;PMS_P2;Temp;Humidity;BMP_temperature;BMP_pressure;BME280_temperature;BME280_humidity;BME280_pressure;Samples;Min_cycle;Max_cycle;Signal;HPM_P1;HPM_P2
2022/10/14 00:01:41;;;;;;;18.03;15.10;;;14.50;46.60;;;;;;5092670;28;20211;-42
2022/10/14 00:04:07;;;;;;;23.97;17.40;;;14.50;46.40;;;;;;5093250;28;20246;-42
2022/10/14 00:06:33;;;;;;;22.23;17.63;;;14.50;46.30;;;;;;5092548;28;20414;-44
2022/10/14 00:09:02;;;;;;;17.33;14.88;;;14.50;46.30;;;;;;5092720;28;20199;-42
2022/10/14 00:11:30;;;;;;;22.15;16.15;;;14.50;46.30;;;;;;5092212;28;20282;-42
2022/10/14 00:14:00;;;;;;;22.55;18.80;;;14.50;46.40;;;;;;5092183;28;20246;-41
2022/10/14 00:16:32;;;;;;;24.02;16.58;;;14.40;46.30;;;;;;5091577;28;20246;-41
2022/10/14 00:18:58;;;;;;;20.40;17.75;;;14.40;46.40;;;;;;5092410;28;20233;-41
2022/10/14 00:21:25;;;;;;;18.25;15.68;;;14.40;46.50;;;;;;5092336;28;20243;-42
2022/10/14 00:23:50;;;;;;;22.98;15.90;;;14.30;46.60;;;;;;5092053;28;20179;-42
2022/10/14 00:26:22;;;;;;;22.87;16.37;;;14.30;46.60;;;;;;5091388;28;20180;-41
2022/10/14 00:28:48;;;;;;;22.80;16.90;;;14.30;46.70;;;;;;5092060;28;20202;-43
2022/10/14 00:31:15;;;;;;;21.60;18.02;;;14.30;46.70;;;;;;5092012;28;20611;-42
2022/10/14 00:33:41;;;;;;;20.02;15.50;;;14.30;46.80;;;;;;5092138;28;20180;-41
2022/10/14 00:36:07;;;;;;;20.33;16.90;;;14.40;46.80;;;;;;5091368;28;20245;-41
2022/10/14 00:38:34;;;;;;;21.15;17.52;;;14.40;47.00;;;;;;5092245;28;20402;-43
2022/10/14 00:41:01;;;;;;;23.33;18.33;;;14.40;47.10;;;;;;5091831;28;20237;-42
2022/10/14 00:43:27;;;;;;;23.13;17.13;;;14.50;47.20;;;;;;5091926;28;20168;-42
2022/10/14 00:45:53;;;;;;;22.27;16.77;;;14.50;47.30;;;;;;5091261;28;20182;-40
2022/10/14 00:48:23;;;;;;;22.60;18.37;;;14.50;47.40;;;;;;5091919;28;20262;-40
2022/10/14 00:50:53;;;;;;;21.08;17.00;;;14.50;47.40;;;;;;5091740;28;20578;-41
2022/10/14 00:53:20;;;;;;;20.45;16.45;;;14.50;47.30;;;;;;5091932;28;20149;-42
2022/10/14 00:55:47;;;;;;;20.20;16.50;;;14.50;47.50;;;;;;5091554;28;20172;-43
2022/10/14 00:58:14;;;;;;;20.35;17.52;;;14.60;47.40;;;;;;5091990;28;20259;-44
2022/10/14 01:00:40;;;;;;;24.98;18.45;;;14.60;47.40;;;;;;5091481;28;20238;-42
2022/10/14 01:03:08;;;;;;;27.88;16.65;;;14.60;47.40;;;;;;5091681;28;20651;-43
2022/10/14 01:05:41;;;;;;;23.20;18.80;;;14.60;47.60;;;;;;5091135;28;20177;-43
2022/10/14 01:08:13;;;;;;;20.98;17.55;;;14.60;47.60;;;;;;5095223;28;20639;-42
2022/10/14 01:10:54;;;;;;;23.23;19.05;;;14.70;47.90;;;;;;5095346;28;20210;-42
2022/10/14 01:13:33;;;;;;;26.05;17.67;;;14.70;47.80;;;;;;5095714;28;20160;-43
2022/10/14 01:16:29;;;;;;;23.67;18.40;;;14.70;47.90;;;;;;5094908;28;20530;-43
2022/10/14 01:19:33;;;;;;;21.35;17.00;;;14.70;47.90;;;;;;5095524;28;20220;-43
2022/10/14 01:22:15;;;;;;;23.83;18.23;;;14.70;48.00;;;;;;5022623;28;20528;-42
2022/10/14 01:24:48;;;;;;;23.23;18.42;;;14.70;48.00;;;;;;5076971;28;20172;-43
2022/10/14 01:27:46;;;;;;;21.00;17.38;;;14.80;47.80;;;;;;5094935;28;20164;-41
2022/10/14 01:30:20;;;;;;;21.45;17.50;;;14.80;47.90;;;;;;5095378;28;20207;-42
2022/10/14 01:32:46;;;;;;;22.92;17.00;;;14.80;48.00;;;;;;5095170;28;20206;-42
2022/10/14 01:35:30;;;;;;;22.70;16.70;;;14.80;48.00;;;;;;5094922;28;20172;-41
2022/10/14 01:38:13;;;;;;;28.20;19.30;;;14.90;48.00;;;;;;5094841;28;20243;-41
2022/10/14 01:40:46;;;;;;;26.95;18.25;;;14.90;48.10;;;;;;5095144;28;20207;-42
2022/10/14 01:43:15;;;;;;;24.20;18.33;;;14.90;48.10;;;;;;5094815;28;20184;-43
2022/10/14 01:45:44;;;;;;;22.58;18.50;;;14.90;48.10;;;;;;5094277;28;20605;-40
2022/10/14 01:48:12;;;;;;;23.13;20.73;;;14.90;48.10;;;;;;5094734;28;20178;-42
2022/10/14 01:50:42;;;;;;;20.50;18.30;;;14.90;48.10;;;;;;5094493;28;20303;-41
2022/10/14 01:53:13;;;;;;;20.30;17.98;;;15.00;48.10;;;;;;5076599;28;20164;-41
2022/10/14 01:55:44;;;;;;;21.00;17.42;;;15.00;48.10;;;;;;5094076;28;20631;-41
2022/10/14 01:58:13;;;;;;;25.80;18.73;;;15.00;48.10;;;;;;5094650;28;20164;-41
2022/10/14 02:00:39;;;;;;;25.75;19.73;;;15.00;48.20;;;;;;5094327;28;20203;-40
2022/10/14 02:03:04;;;;;;;21.37;17.73;;;15.00;48.30;;;;;;5094477;28;20262;-41
2022/10/14 02:05:44;;;;;;;22.90;17.27;;;15.00;48.20;;;;;;5094030;28;20207;-43
2022/10/14 02:08:22;;;;;;;25.48;18.95;;;15.10;48.50;;;;;;5094476;28;20159;-43
2022/10/14 02:11:08;;;;;;;22.48;19.05;;;15.00;48.50;;;;;;5094224;28;20215;-44
2022/10/14 02:13:44;;;;;;;23.08;17.80;;;15.10;48.50;;;;;;5094250;28;20156;-44
2022/10/14 02:16:18;;;;;;;24.25;18.30;;;15.10;48.50;;;;;;5093838;28;20263;-43
2022/10/14 02:18:47;;;;;;;19.95;16.55;;;15.10;48.60;;;;;;5092861;28;20179;-43
2022/10/14 02:21:28;;;;;;;20.92;17.05;;;15.10;48.50;;;;;;5094295;28;20188;-43
2022/10/14 02:24:09;;;;;;;22.08;18.73;;;15.10;48.60;;;;;;5094112;28;20652;-43
2022/10/14 02:26:37;;;;;;;28.20;21.83;;;15.10;48.70;;;;;;5093476;28;20180;-42
2022/10/14 02:29:04;;;;;;;27.55;22.23;;;15.10;48.70;;;;;;5093819;28;20245;-43
2022/10/14 02:31:33;;;;;;;21.50;18.27;;;15.20;48.60;;;;;;5094134;28;20241;-42
2022/10/14 02:34:02;;;;;;;27.15;18.67;;;15.20;48.70;;;;;;5094071;28;20527;-42
2022/10/14 02:36:30;;;;;;;19.98;16.50;;;15.20;48.70;;;;;;5093190;28;20164;-43
2022/10/14 02:38:58;;;;;;;23.98;17.42;;;15.20;48.60;;;;;;5093891;28;20180;-41
2022/10/14 02:41:27;;;;;;;23.88;15.70;;;15.30;48.70;;;;;;5093878;28;20199;-43
2022/10/14 02:43:53;;;;;;;24.95;18.70;;;15.20;48.70;;;;;;5093660;28;20180;-41
2022/10/14 02:46:21;;;;;;;23.50;17.47;;;15.30;48.80;;;;;;5093037;28;20631;-42
2022/10/14 02:48:47;;;;;;;21.98;18.58;;;15.30;48.60;;;;;;5093778;28;20176;-44
2022/10/14 02:51:13;;;;;;;21.92;17.50;;;15.30;48.70;;;;;;5093787;28;20196;-42
2022/10/14 02:53:39;;;;;;;20.93;17.23;;;15.30;48.70;;;;;;5093447;28;20762;-42
2022/10/14 02:56:05;;;;;;;22.70;18.10;;;15.30;48.80;;;;;;5093075;28;20172;-44
2022/10/14 02:58:31;;;;;;;22.10;17.27;;;15.30;48.90;;;;;;5093331;28;20179;-44
2022/10/14 03:00:56;;;;;;;24.42;18.90;;;15.30;48.90;;;;;;5093134;28;20234;-43
2022/10/14 03:03:22;;;;;;;24.77;18.77;;;15.40;49.10;;;;;;5093385;28;20191;-42
2022/10/14 03:05:48;;;;;;;23.43;19.70;;;15.30;49.00;;;;;;5092707;28;21080;-42
2022/10/14 03:08:14;;;;;;;20.97;16.53;;;15.30;49.10;;;;;;5093363;28;20172;-42
2022/10/14 03:10:39;;;;;;;24.20;17.03;;;15.40;49.00;;;;;;5093015;28;20199;-42
2022/10/14 03:13:06;;;;;;;23.13;18.37;;;15.40;49.00;;;;;;5093134;28;20527;-43
2022/10/14 03:15:32;;;;;;;25.60;19.55;;;15.30;49.10;;;;;;5092836;28;20251;-41
2022/10/14 03:17:57;;;;;;;22.97;17.90;;;15.30;49.20;;;;;;5093106;28;20250;-42
2022/10/14 03:20:23;;;;;;;21.20;17.93;;;15.30;49.20;;;;;;5092978;28;20234;-43
2022/10/14 03:22:49;;;;;;;26.90;19.50;;;15.40;49.20;;;;;;5092892;28;20193;-43
2022/10/14 03:25:15;;;;;;;27.17;19.17;;;15.30;49.40;;;;;;5092903;28;20266;-41
2022/10/14 03:27:40;;;;;;;26.63;20.03;;;15.40;49.40;;;;;;5092223;28;20224;-42
2022/10/14 03:30:07;;;;;;;21.43;17.33;;;15.40;49.50;;;;;;5092589;28;20458;-43
2022/10/14 03:32:32;;;;;;;23.10;17.73;;;15.40;49.40;;;;;;5092886;28;20171;-41
2022/10/14 03:34:58;;;;;;;24.67;18.93;;;15.40;49.30;;;;;;5092780;28;20535;-42
2022/10/14 03:37:24;;;;;;;23.70;18.50;;;15.40;49.30;;;;;;5092104;28;20176;-42
2022/10/14 03:39:50;;;;;;;24.33;19.00;;;15.40;49.30;;;;;;5092488;28;20273;-43
2022/10/14 03:42:15;;;;;;;22.00;17.87;;;15.40;49.40;;;;;;5092672;28;20167;-41
2022/10/14 03:44:41;;;;;;;22.87;18.37;;;15.50;49.60;;;;;;5092899;28;20171;-41
2022/10/14 03:47:07;;;;;;;21.90;17.33;;;15.50;49.40;;;;;;5091942;28;20172;-42
2022/10/14 03:49:32;;;;;;;24.90;19.17;;;15.50;49.40;;;;;;5092576;28;20223;-42
2022/10/14 03:51:58;;;;;;;25.83;19.73;;;15.50;49.40;;;;;;5092798;28;20198;-42
2022/10/14 03:54:24;;;;;;;25.00;20.27;;;15.50;49.60;;;;;;5092405;28;20202;-43
2022/10/14 03:56:49;;;;;;;22.37;17.60;;;15.50;49.50;;;;;;5091666;28;20621;-41
2022/10/14 03:59:15;;;;;;;34.43;22.90;;;15.50;49.70;;;;;;5092486;28;20164;-41
2022/10/14 04:01:41;;;;;;;23.88;19.63;;;15.50;50.30;;;;;;5092211;28;20207;-43
2022/10/14 04:04:07;;;;;;;26.97;21.17;;;15.50;49.70;;;;;;5092390;28;20666;-42
2022/10/14 04:06:32;;;;;;;33.50;21.73;;;15.50;50.00;;;;;;5091733;28;20176;-42
2022/10/14 04:08:58;;;;;;;27.27;23.33;;;15.50;49.90;;;;;;5092518;28;20195;-44
2022/10/14 04:11:24;;;;;;;28.10;20.00;;;15.50;50.00;;;;;;5092152;28;20214;-41
2022/10/14 04:13:49;;;;;;;29.80;22.50;;;15.50;49.80;;;;;;5092115;28;20202;-42
2022/10/14 04:16:15;;;;;;;33.20;24.50;;;15.60;49.80;;;;;;5091832;28;20176;-41
2022/10/14 04:18:41;;;;;;;34.13;24.57;;;15.60;50.00;;;;;;5092178;28;20208;-43
2022/10/14 04:21:11;;;;;;;27.77;20.43;;;15.60;49.90;;;;;;5092064;28;20184;-43
2022/10/14 04:23:37;;;;;;;34.13;23.27;;;15.60;49.90;;;;;;5092316;28;20160;-43
2022/10/14 04:26:04;;;;;;;29.10;23.50;;;15.60;49.90;;;;;;5091735;28;20176;-43
2022/10/14 04:28:30;;;;;;;31.80;23.00;;;15.70;50.10;;;;;;5092320;28;20739;-42
2022/10/14 04:30:56;;;;;;;30.88;23.17;;;15.70;50.10;;;;;;5092133;28;20269;-41
2022/10/14 04:33:22;;;;;;;24.97;19.47;;;15.70;50.00;;;;;;5092289;28;20218;-41
2022/10/14 04:35:48;;;;;;;27.20;21.00;;;15.70;49.90;;;;;;5091442;28;20398;-42
2022/10/14 04:38:13;;;;;;;26.83;20.27;;;15.80;49.80;;;;;;5091938;28;20527;-42
2022/10/14 04:40:39;;;;;;;29.67;21.67;;;15.70;49.80;;;;;;5073699;28;20631;-41
2022/10/14 04:43:05;;;;;;;40.13;21.63;;;15.70;49.70;;;;;;5096257;28;20261;-43
2022/10/14 04:45:31;;;;;;;25.60;19.77;;;15.70;49.70;;;;;;5095760;28;20964;-43
2022/10/14 04:47:57;;;;;;;27.27;18.80;;;15.80;49.70;;;;;;5095754;28;20444;-42
2022/10/14 04:50:22;;;;;;;34.63;22.60;;;15.80;49.60;;;;;;5095810;28;21017;-42
2022/10/14 04:52:48;;;;;;;32.83;20.07;;;15.70;49.60;;;;;;5096145;28;20168;-42
2022/10/14 04:55:14;;;;;;;28.80;21.50;;;15.70;49.60;;;;;;5095945;28;20655;-42
2022/10/14 04:57:42;;;;;;;27.57;22.90;;;15.80;49.60;;;;;;5076909;28;20175;-43
2022/10/14 05:00:10;;;;;;;27.95;22.83;;;15.70;49.70;;;;;;5095879;28;20196;-41
2022/10/14 05:02:36;;;;;;;25.13;20.15;;;15.70;49.60;;;;;;5096035;28;20191;-43
2022/10/14 05:05:02;;;;;;;28.90;20.47;;;15.70;49.70;;;;;;5095600;28;20647;-43
2022/10/14 05:07:28;;;;;;;29.33;21.67;;;15.70;49.70;;;;;;5095173;28;20176;-45
2022/10/14 05:09:53;;;;;;;30.10;23.60;;;15.70;49.80;;;;;;5095482;28;20449;-41
2022/10/14 05:12:19;;;;;;;29.37;21.97;;;15.70;49.80;;;;;;5095476;28;20488;-41
2022/10/14 05:14:45;;;;;;;39.53;25.97;;;15.70;49.70;;;;;;5095438;28;20168;-42
2022/10/14 05:17:11;;;;;;;25.73;21.27;;;15.70;49.70;;;;;;5095081;28;20167;-42
2022/10/14 05:19:37;;;;;;;25.27;20.87;;;15.70;49.80;;;;;;5095267;28;20405;-42
2022/10/14 05:22:02;;;;;;;24.63;18.57;;;15.60;49.80;;;;;;5095153;28;20179;-42
2022/10/14 05:24:28;;;;;;;32.23;21.00;;;15.60;49.70;;;;;;5095283;28;20172;-43
2022/10/14 05:26:54;;;;;;;25.80;20.10;;;15.60;49.70;;;;;;5094655;28;20855;-42
2022/10/14 05:29:20;;;;;;;30.30;24.27;;;15.60;49.70;;;;;;5095015;28;20268;-41
2022/10/14 05:31:45;;;;;;;33.17;24.27;;;15.60;49.80;;;;;;5094928;28;20195;-41
2022/10/14 05:34:11;;;;;;;29.80;24.73;;;15.60;49.80;;;;;;5095091;28;20199;-41
2022/10/14 05:36:37;;;;;;;32.03;23.53;;;15.60;49.90;;;;;;5094278;28;20164;-42
2022/10/14 05:39:06;;;;;;;32.77;24.33;;;15.70;49.80;;;;;;5094887;28;20172;-43
2022/10/14 05:41:32;;;;;;;28.50;22.75;;;15.70;49.90;;;;;;5094800;28;20192;-42
2022/10/14 05:43:58;;;;;;;34.93;24.60;;;15.70;49.80;;;;;;5094839;28;20665;-42
2022/10/14 05:46:23;;;;;;;36.10;26.77;;;15.70;49.90;;;;;;5094440;28;20259;-42
2022/10/14 05:48:49;;;;;;;30.17;22.93;;;15.70;49.90;;;;;;5094676;28;20221;-43
2022/10/14 05:51:15;;;;;;;40.80;23.70;;;15.70;49.90;;;;;;5094512;28;20722;-43
2022/10/14 05:53:42;;;;;;;30.90;21.67;;;15.70;49.90;;;;;;5094318;28;20689;-43
2022/10/14 05:56:09;;;;;;;28.83;22.75;;;15.80;49.90;;;;;;5094124;28;20402;-41
2022/10/14 05:58:34;;;;;;;32.53;24.20;;;15.70;49.90;;;;;;5094913;28;20531;-42
2022/10/14 06:01:02;;;;;;;32.33;24.70;;;15.70;50.00;;;;;;5094496;28;20207;-41
2022/10/14 06:03:28;;;;;;;33.13;20.85;;;15.80;50.00;;;;;;5094505;28;20215;-42
2022/10/14 06:05:54;;;;;;;31.70;23.58;;;15.80;50.00;;;;;;5075802;28;20175;-43
2022/10/14 06:08:20;;;;;;;28.50;21.98;;;15.80;50.00;;;;;;5094039;28;20710;-43
2022/10/14 06:10:46;;;;;;;31.75;24.08;;;15.80;49.90;;;;;;5094248;28;20699;-40
2022/10/14 06:13:13;;;;;;;28.03;21.50;;;15.80;50.00;;;;;;5094363;28;20181;-41
2022/10/14 06:15:38;;;;;;;35.58;25.45;;;15.90;50.60;;;;;;5093991;28;20172;-42
2022/10/14 06:18:05;;;;;;;24.90;20.50;;;15.90;50.10;;;;;;5094320;28;20238;-42
2022/10/14 06:20:30;;;;;;;37.67;26.00;;;15.90;50.20;;;;;;5075939;28;20998;-42
2022/10/14 06:22:59;;;;;;;34.03;25.27;;;15.90;50.30;;;;;;5094045;28;20184;-41
2022/10/14 06:25:25;;;;;;;32.30;23.27;;;15.90;50.30;;;;;;5093997;28;20921;-43
2022/10/14 06:27:51;;;;;;;30.85;23.75;;;15.90;50.30;;;;;;5093493;28;20655;-43
2022/10/14 06:30:17;;;;;;;40.50;29.97;;;16.00;50.20;;;;;;5093813;28;20269;-42
2022/10/14 06:32:43;;;;;;;41.63;25.40;;;16.00;50.30;;;;;;5094197;28;20198;-42
2022/10/14 06:35:09;;;;;;;37.17;26.00;;;16.10;50.60;;;;;;5093889;28;20164;-43
2022/10/14 06:37:34;;;;;;;38.00;27.00;;;16.10;50.70;;;;;;5093250;28;20175;-42
2022/10/14 06:40:00;;;;;;;42.70;28.30;;;16.20;50.60;;;;;;5093690;28;20199;-43
2022/10/14 06:42:26;;;;;;;38.17;28.17;;;16.20;50.80;;;;;;5093876;28;20418;-43
2022/10/14 06:44:52;;;;;;;34.30;27.40;;;16.20;50.90;;;;;;5093736;28;20180;-44
2022/10/14 06:47:18;;;;;;;41.87;28.77;;;16.20;50.70;;;;;;5093035;28;20421;-41
2022/10/14 06:49:43;;;;;;;39.17;28.07;;;16.30;50.90;;;;;;5093406;28;20191;-42
2022/10/14 06:52:09;;;;;;;37.20;29.23;;;16.30;51.30;;;;;;5093527;28;20243;-43
2022/10/14 06:54:35;;;;;;;40.97;26.60;;;16.30;51.10;;;;;;5093628;28;20257;-41
2022/10/14 06:57:01;;;;;;;40.80;26.87;;;16.30;50.90;;;;;;5092820;28;20663;-41
2022/10/14 06:59:27;;;;;;;37.67;28.20;;;16.40;50.90;;;;;;5093353;28;20274;-43
2022/10/14 07:01:54;;;;;;;41.05;28.95;;;16.40;50.80;;;;;;5093724;28;20300;-43
2022/10/14 07:04:20;;;;;;;46.08;29.65;;;16.50;50.80;;;;;;5092573;28;20168;-41
2022/10/14 07:06:46;;;;;;;39.90;27.60;;;16.60;51.00;;;;;;5092650;28;20175;-42
2022/10/14 07:09:11;;;;;;;36.37;26.93;;;16.60;50.70;;;;;;5093151;28;20495;-41
2022/10/14 07:11:37;;;;;;;36.17;27.40;;;16.70;50.80;;;;;;5093329;28;20238;-42
2022/10/14 07:14:03;;;;;;;39.20;28.00;;;16.70;50.70;;;;;;5093536;28;20164;-43
2022/10/14 07:16:29;;;;;;;38.73;28.10;;;16.80;50.60;;;;;;5092723;28;20246;-45
2022/10/14 07:18:54;;;;;;;37.13;27.67;;;16.80;50.60;;;;;;5093117;28;20168;-40
2022/10/14 07:21:20;;;;;;;42.00;27.90;;;16.90;50.50;;;;;;5093110;28;20732;-42
2022/10/14 07:23:46;;;;;;;39.07;29.07;;;16.90;51.20;;;;;;5093002;28;20164;-42
2022/10/14 07:26:12;;;;;;;39.10;25.92;;;16.90;50.40;;;;;;5092333;28;20360;-41
2022/10/14 07:28:38;;;;;;;34.40;27.93;;;16.90;50.50;;;;;;5092920;28;20175;-41
2022/10/14 07:31:06;;;;;;;43.43;27.53;;;16.90;50.30;;;;;;5092744;28;20200;-43
2022/10/14 07:33:33;;;;;;;43.22;29.10;;;17.00;50.40;;;;;;5092692;28;20190;-41
2022/10/14 07:36:04;;;;;;;39.10;29.10;;;17.00;50.20;;;;;;5092125;28;20247;-42
2022/10/14 07:38:30;;;;;;;37.40;27.52;;;17.10;50.20;;;;;;5092712;28;20524;-41
2022/10/14 07:41:16;;;;;;;37.47;27.63;;;17.10;50.20;;;;;;5092878;28;20199;-42
2022/10/14 07:43:44;;;;;;;45.58;27.35;;;17.10;50.10;;;;;;5092518;28;20426;-42
2022/10/14 07:46:11;;;;;;;40.00;26.90;;;17.20;50.00;;;;;;5092272;28;20180;-41
2022/10/14 07:48:38;;;;;;;35.70;27.42;;;17.20;50.10;;;;;;5092798;28;20176;-42
2022/10/14 07:51:06;;;;;;;37.95;25.45;;;17.30;50.20;;;;;;5092373;28;20706;-42
2022/10/14 07:53:31;;;;;;;38.78;27.45;;;17.30;49.80;;;;;;5092561;28;20168;-42
2022/10/14 07:55:58;;;;;;;41.40;28.90;;;17.30;49.80;;;;;;5091819;28;20168;-41
2022/10/14 07:58:27;;;;;;;37.10;26.35;;;17.30;49.70;;;;;;5092567;28;20179;-42
2022/10/14 08:00:54;;;;;;;30.52;24.65;;;17.40;49.50;;;;;;5092290;28;20219;-42
2022/10/14 08:03:20;;;;;;;35.58;27.05;;;17.40;49.70;;;;;;5092410;28;20841;-41
2022/10/14 08:05:46;;;;;;;41.75;30.77;;;17.50;49.40;;;;;;5091645;28;20746;-42
2022/10/14 08:08:12;;;;;;;44.20;31.20;;;17.60;49.50;;;;;;5092491;28;20266;-42
2022/10/14 08:10:39;;;;;;;41.10;28.75;;;17.60;49.20;;;;;;5092114;28;20454;-42
2022/10/14 08:13:06;;;;;;;35.90;25.38;;;17.70;49.20;;;;;;5092274;28;20218;-40
2022/10/14 08:15:40;;;;;;;35.47;28.38;;;17.70;49.10;;;;;;5091772;28;20172;-42
2022/10/14 08:18:10;;;;;;;32.40;26.40;;;17.70;49.00;;;;;;5092438;28;20262;-42
2022/10/14 08:20:37;;;;;;;40.03;26.58;;;17.80;48.80;;;;;;5092069;28;20291;-43
2022/10/14 08:23:03;;;;;;;41.50;27.90;;;17.80;48.80;;;;;;5092034;28;20722;-42
2022/10/14 08:25:29;;;;;;;34.40;25.70;;;17.80;48.60;;;;;;5092085;28;20272;-45
2022/10/14 08:27:57;;;;;;;39.65;28.35;;;17.80;48.70;;;;;;5091732;28;20413;-42
2022/10/14 08:30:24;;;;;;;42.75;26.10;;;17.90;48.90;;;;;;5091909;28;20260;-43
2022/10/14 08:32:49;;;;;;;39.33;29.45;;;17.90;48.90;;;;;;5092042;28;20168;-42
2022/10/14 08:35:15;;;;;;;39.00;28.37;;;18.00;49.00;;;;;;5091912;28;20184;-42
2022/10/14 08:37:41;;;;;;;37.20;27.77;;;18.00;49.00;;;;;;5091609;28;20172;-41
2022/10/14 08:40:14;;;;;;;39.70;28.03;;;18.10;48.80;;;;;;5092115;28;20532;-43
2022/10/14 08:42:39;;;;;;;35.67;28.23;;;18.20;48.60;;;;;;5092240;28;20456;-42
2022/10/14 08:45:15;;;;;;;48.87;28.67;;;18.30;48.60;;;;;;5092269;28;20671;-43
2022/10/14 08:47:45;;;;;;;36.13;27.85;;;18.30;48.40;;;;;;5091240;28;20401;-42
2022/10/14 08:50:37;;;;;;;36.08;26.33;;;18.30;48.30;;;;;;5092039;28;20216;-42
2022/10/14 08:53:15;;;;;;;36.33;26.52;;;18.40;48.20;;;;;;5092099;28;20196;-41
2022/10/14 08:55:44;;;;;;;35.97;28.08;;;18.40;48.30;;;;;;5091394;28;20186;-41
2022/10/14 08:58:24;;;;;;;37.90;27.20;;;18.40;48.10;;;;;;5091789;28;20172;-41
2022/10/14 09:00:52;;;;;;;36.13;25.27;;;18.50;48.20;;;;;;5091656;28;20223;-44
2022/10/14 09:03:31;;;;;;;37.58;26.30;;;18.50;48.20;;;;;;5091849;28;20224;-43
2022/10/14 09:06:01;;;;;;;36.22;26.90;;;18.60;48.10;;;;;;5091271;28;20239;-44
2022/10/14 09:08:32;;;;;;;39.88;26.35;;;18.60;48.00;;;;;;5091626;28;20536;-43
2022/10/14 09:10:58;;;;;;;36.75;27.55;;;18.70;48.00;;;;;;5091568;28;20200;-43
2022/10/14 09:13:37;;;;;;;30.48;25.02;;;18.80;48.00;;;;;;5091611;28;20164;-42
2022/10/14 09:16:13;;;;;;;33.45;24.17;;;18.90;48.00;;;;;;5091044;28;20190;-40
2022/10/14 09:18:45;;;;;;;29.88;23.50;;;19.00;47.70;;;;;;5091664;28;20164;-40
2022/10/14 09:21:29;;;;;;;35.10;25.27;;;19.00;47.60;;;;;;5091550;28;20343;-40
2022/10/14 09:24:01;;;;;;;36.95;25.52;;;19.10;47.50;;;;;;5091516;28;20176;-39
2022/10/14 09:26:38;;;;;;;32.50;24.92;;;19.20;47.50;;;;;;5091065;28;20188;-40
2022/10/14 09:29:04;;;;;;;38.95;26.67;;;19.20;47.10;;;;;;5095181;28;20229;-39
2022/10/14 09:31:30;;;;;;;30.27;22.88;;;19.20;47.10;;;;;;5095093;28;20532;-41
2022/10/14 09:33:56;;;;;;;31.00;23.97;;;19.20;47.00;;;;;;5095317;28;20179;-40
2022/10/14 09:36:22;;;;;;;30.17;24.90;;;19.20;46.70;;;;;;5094315;28;20199;-40
2022/10/14 09:38:52;;;;;;;36.50;25.30;;;19.20;46.80;;;;;;5076853;28;20193;-40
2022/10/14 09:41:22;;;;;;;29.33;22.98;;;19.20;46.70;;;;;;5095131;28;20434;-40
2022/10/14 09:44:24;;;;;;;33.50;24.20;;;19.20;47.00;;;;;;5095294;28;20195;-39
2022/10/14 09:47:04;;;;;;;41.55;24.20;;;19.30;47.10;;;;;;5094321;28;20179;-41
2022/10/14 09:49:44;;;;;;;30.42;23.85;;;19.40;47.20;;;;;;5094823;28;20207;-40
2022/10/14 09:52:22;;;;;;;29.52;24.30;;;19.50;46.70;;;;;;5094920;28;20195;-39
2022/10/14 09:54:59;;;;;;;31.92;23.52;;;19.60;46.70;;;;;;5094791;28;20194;-40
2022/10/14 09:57:27;;;;;;;32.58;24.23;;;19.70;46.30;;;;;;5094138;28;20615;-42
2022/10/14 09:59:57;;;;;;;30.65;22.50;;;19.70;46.60;;;;;;5094588;28;20223;-40
2022/10/14 10:02:37;;;;;;;28.70;23.92;;;19.90;46.50;;;;;;5094805;28;20221;-43
2022/10/14 10:05:20;;;;;;;31.98;22.60;;;19.90;46.50;;;;;;5094462;28;20225;-40
2022/10/14 10:08:00;;;;;;;30.98;21.85;;;20.00;46.20;;;;;;5094005;28;20180;-41
2022/10/14 10:10:29;;;;;;;30.05;21.50;;;20.10;45.80;;;;;;5094674;28;20280;-40
2022/10/14 10:12:56;;;;;;;34.65;21.33;;;20.20;45.30;;;;;;5094382;28;20163;-42
2022/10/14 10:15:23;;;;;;;26.27;22.25;;;20.30;45.90;;;;;;5094518;28;20160;-41
2022/10/14 10:17:49;;;;;;;33.30;23.88;;;20.50;45.40;;;;;;5093613;28;20229;-42
2022/10/14 10:20:18;;;;;;;36.00;23.90;;;20.80;45.00;;;;;;5094165;28;20199;-40
2022/10/14 10:22:44;;;;;;;25.00;18.73;;;21.20;45.70;;;;;;5094424;28;20176;-41
2022/10/14 10:25:27;;;;;;;32.55;20.23;;;21.50;44.10;;;;;;5094384;28;20227;-42
2022/10/14 10:27:58;;;;;;;29.80;20.05;;;21.60;42.80;;;;;;5092306;28;20171;-41
2022/10/14 10:30:31;;;;;;;30.38;21.65;;;21.60;43.30;;;;;;5093720;28;20302;-42
2022/10/14 10:33:06;;;;;;;26.10;19.90;;;21.60;42.60;;;;;;5094176;28;20225;-41
2022/10/14 10:36:02;;;;;;;25.57;18.80;;;21.60;43.00;;;;;;5093695;28;20916;-41
2022/10/14 10:38:34;;;;;;;28.60;19.35;;;21.60;43.00;;;;;;5093052;28;20390;-41
2022/10/14 10:41:11;;;;;;;26.30;18.17;;;21.50;43.10;;;;;;5093503;28;20245;-42
2022/10/14 10:43:41;;;;;;;21.80;16.50;;;21.50;42.70;;;;;;5093683;28;20401;-40
2022/10/14 10:46:22;;;;;;;24.20;17.33;;;21.40;43.00;;;;;;5093255;28;20700;-41
2022/10/14 10:49:00;;;;;;;25.40;16.30;;;21.30;43.80;;;;;;5094147;28;20270;-40
2022/10/14 10:51:55;;;;;;;24.10;16.85;;;21.30;42.80;;;;;;5093685;28;20429;-43
2022/10/14 10:54:30;;;;;;;19.08;16.35;;;21.30;43.30;;;;;;5093758;28;20654;-42
2022/10/14 10:57:40;;;;;;;22.77;19.07;;;21.20;43.20;;;;;;5093235;28;20156;-41
2022/10/14 11:00:15;;;;;;;22.23;15.87;;;21.20;43.00;;;;;;5072120;28;20460;-41
2022/10/14 11:02:56;;;;;;;14.93;11.67;;;21.20;43.20;;;;;;5093452;28;20422;-41
2022/10/14 11:05:41;;;;;;;14.52;12.52;;;21.10;43.00;;;;;;5093359;28;20410;-43
2022/10/14 11:14:53;;;;;;;19.55;12.30;;;21.00;42.70;;;;;;5093956;28;20221;-42
2022/10/14 11:17:39;;;;;;;15.55;11.05;;;21.00;42.70;;;;;;5051391;28;20217;-42
2022/10/14 11:20:21;;;;;;;12.50;10.32;;;21.00;42.30;;;;;;5093405;28;20223;-42
2022/10/14 11:23:11;;;;;;;13.30;11.23;;;21.00;42.60;;;;;;5092981;28;20180;-42
2022/10/14 11:25:54;;;;;;;10.63;9.53;;;21.10;42.50;;;;;;5092295;28;20215;-42
2022/10/14 11:28:44;;;;;;;19.10;15.27;;;21.00;42.40;;;;;;5093239;28;20451;-42
2022/10/14 11:31:28;;;;;;;17.40;13.20;;;21.00;42.60;;;;;;5093342;28;20225;-42
2022/10/14 11:34:18;;;;;;;16.70;14.63;;;21.00;42.80;;;;;;5093059;28;20307;-42
2022/10/14 11:37:17;;;;;;;15.90;12.40;;;21.00;42.70;;;;;;5092230;28;20394;-42
2022/10/14 11:40:12;;;;;;;15.37;11.23;;;21.00;42.80;;;;;;5092684;28;20389;-42
2022/10/14 11:43:05;;;;;;;15.88;11.05;;;20.90;43.00;;;;;;5074585;28;20437;-42
2022/10/14 11:46:00;;;;;;;8.63;7.72;;;20.90;43.00;;;;;;5092577;28;20183;-42
2022/10/14 11:48:37;;;;;;;10.13;5.70;;;21.00;42.60;;;;;;5092954;28;20166;-40
2022/10/14 11:51:23;;;;;;;4.55;3.20;;;20.90;42.90;;;;;;5092174;28;20207;-42
2022/10/14 11:54:10;;;;;;;5.75;2.55;;;21.00;42.60;;;;;;5092527;28;20153;-41
2022/10/14 11:56:50;;;;;;;5.45;3.33;;;21.00;42.20;;;;;;5091869;28;20171;-42
2022/10/14 12:03:08;;;;;;;4.82;3.22;;;21.10;42.30;;;;;;5092518;28;20205;-42
2022/10/14 12:05:47;;;;;;;3.65;3.20;;;21.10;41.50;;;;;;5091896;28;20229;-42
2022/10/14 12:08:20;;;;;;;3.65;3.20;;;21.20;40.30;;;;;;5092658;28;20317;-42
2022/10/14 12:11:22;;;;;;;3.63;2.97;;;21.10;41.30;;;;;;5092358;28;20204;-41
2022/10/14 12:13:51;;;;;;;5.07;3.38;;;21.20;41.40;;;;;;5092106;28;20174;-42
2022/10/14 12:16:22;;;;;;;11.63;3.77;;;21.20;40.90;;;;;;5091595;28;20178;-42
2022/10/14 12:18:51;;;;;;;3.67;3.27;;;21.20;41.00;;;;;;5092100;28;20440;-41
2022/10/14 12:21:46;;;;;;;3.47;2.97;;;21.20;40.60;;;;;;5092467;28;20424;-43
2022/10/14 12:24:22;;;;;;;2.88;2.58;;;21.20;40.80;;;;;;5092099;28;20406;-42
2022/10/14 12:27:00;;;;;;;3.70;3.30;;;21.20;40.60;;;;;;5073527;28;20232;-42
2022/10/14 12:29:51;;;;;;;3.28;2.40;;;21.20;40.40;;;;;;5091867;28;20234;-42
2022/10/14 12:32:20;;;;;;;5.10;3.20;;;21.20;40.80;;;;;;5082082;28;20263;-42
2022/10/14 12:34:55;;;;;;;7.57;3.45;;;21.10;41.10;;;;;;5092643;28;20251;-42
2022/10/14 12:37:23;;;;;;;5.38;3.10;;;21.20;41.20;;;;;;5091721;28;20577;-42
2022/10/14 12:40:13;;;;;;;4.80;3.22;;;21.20;41.20;;;;;;5091815;28;20175;-42
2022/10/14 12:42:42;;;;;;;4.88;3.03;;;21.20;40.90;;;;;;5091825;28;20178;-42
2022/10/14 12:45:26;;;;;;;4.25;3.13;;;21.20;41.20;;;;;;5091949;28;20509;-42
2022/10/14 12:48:12;;;;;;;8.77;5.72;;;21.30;40.80;;;;;;5091404;28;20655;-42
2022/10/14 12:50:40;;;;;;;7.45;4.35;;;21.30;41.10;;;;;;5091765;28;20207;-42
2022/10/14 12:53:28;;;;;;;6.57;3.63;;;21.30;41.50;;;;;;5092117;28;20172;-43
2022/10/14 12:56:03;;;;;;;6.90;6.20;;;21.40;41.10;;;;;;5091194;28;20697;-42
2022/10/14 12:58:40;;;;;;;8.13;5.93;;;21.50;42.30;;;;;;5091987;28;20218;-42